Dobrodošli na spletni strani vremenske postaje Senovo. Vse informacije so informativnega značaja, saj vremenska postaja ni del državne mreže meteoroloških postaj. AKTUALNIH OBVESTIL NI.


Sneg/Led Od: 23-02-2018 00:00 Do: 23:59 Opozorilo za: Sneg/Led Stopnja: Rumena info button

Pogled proti Armezu več informacij Pogled proti Armezu


Lisca več informacij Lisca


Radar strel več informacij blitzortung!


opozorilo za sneg/led več informacij rain snow radar


Obiščite še:

Template documentation
and downloads

And another site



Weather Underground, zgodovina - Tekstovno

Dnevni povzetek za Januar 31, 2018 Enote:  Obe    Angleško   Metrično
« Predhodni Dan
Naslednji Dan »
Dnevni Tedenski Mesečni Letni Po meri
  Višja: Nižja: Povprečje:
Temperatura: TemperatureC °F /  -17.8 °C -2.1 °F /  -18.9 °C 3.5 °F /  -15.8 °C
Točka rosišča: DewpointC °F /  -17.8 °C -3.5 °F /  -19.7 °C 1.2 °F /  -17.1 °C
Vlažnost: Humidity % 69 % 86 %
Hitrost vetra: WindSpeedKMH mph /  0 km/h - 2.1 mph /  3.4 km/h
Sunki vetra: WindSpeedGustKMH mph /  0 km/h - -
Veter:- - SW
Zračni tlak: PressurehPa in /  0 hPa 1011.1 in /  34235.8 hPa -
Padavine: 0.0 in /  0 mm    
Historical Graphs
 
 
Tabelarni podarki za Januar 31, 2018
Čas Temperatura Točka rosišča Zračni tlak Veter Hitrost vetra Sunki vetra Vlažnost Intenziteta padavin (urna)
TemperatureC °F /  -17.8 °C DewpointC °F /  -17.8 °C PressurehPa in /  0 hPa Calm     Humidity % HourlyPrecipMM in /  0 mm
00:03 -0.5 °F /  -18.1 °C -2.4 °F /  -19.1 °C 1026.0 in /  34740.4 hPa Calm     87 % 0.0 in /  0 mm
00:08 -0.5 °F /  -18.1 °C -2.4 °F /  -19.1 °C 1026.0 in /  34740.4 hPa Calm     87 % 0.0 in /  0 mm
00:13 -0.6 °F /  -18.1 °C -2.5 °F /  -19.2 °C 1024.9 in /  34703.1 hPa Calm     87 % 0.0 in /  0 mm
00:18 -0.6 °F /  -18.1 °C -2.5 °F /  -19.2 °C 1024.9 in /  34703.1 hPa Calm     87 % 0.0 in /  0 mm
00:23 -0.7 °F /  -18.2 °C -2.6 °F /  -19.2 °C 1024.9 in /  34703.1 hPa Calm     87 % 0.0 in /  0 mm
00:28 -0.7 °F /  -18.2 °C -2.6 °F /  -19.2 °C 1024.9 in /  34703.1 hPa Calm     87 % 0.0 in /  0 mm
00:33 -0.8 °F /  -18.2 °C -2.7 °F /  -19.3 °C 1024.9 in /  34703.1 hPa Calm     87 % 0.0 in /  0 mm
00:38 -0.8 °F /  -18.2 °C -2.7 °F /  -19.3 °C 1024.9 in /  34703.1 hPa Calm     87 % 0.0 in /  0 mm
00:43 -0.9 °F /  -18.3 °C -2.8 °F /  -19.3 °C 1024.9 in /  34703.1 hPa Calm     87 % 0.0 in /  0 mm
00:48 -1.0 °F /  -18.3 °C -2.7 °F /  -19.3 °C 1024.9 in /  34703.1 hPa Calm     88 % 0.0 in /  0 mm
00:53 -1.0 °F /  -18.3 °C -2.7 °F /  -19.3 °C 1024.9 in /  34703.1 hPa Calm     88 % 0.0 in /  0 mm
00:58 -1.0 °F /  -18.3 °C -2.7 °F /  -19.3 °C 1023.9 in /  34669.3 hPa Calm     88 % 0.0 in /  0 mm
01:03 -1.0 °F /  -18.3 °C -2.7 °F /  -19.3 °C 1023.9 in /  34669.3 hPa Calm     88 % 0.0 in /  0 mm
01:09 -1.1 °F /  -18.4 °C -2.8 °F /  -19.3 °C 1023.9 in /  34669.3 hPa Calm     88 % 0.0 in /  0 mm
01:14 -1.1 °F /  -18.4 °C -2.8 °F /  -19.3 °C 1023.9 in /  34669.3 hPa Calm     88 % 0.0 in /  0 mm
01:19 -1.1 °F /  -18.4 °C -2.8 °F /  -19.3 °C 1023.9 in /  34669.3 hPa Calm     88 % 0.0 in /  0 mm
01:24 -1.0 °F /  -18.3 °C -2.7 °F /  -19.3 °C 1023.9 in /  34669.3 hPa Calm     88 % 0.0 in /  0 mm
01:29 -1.1 °F /  -18.4 °C -2.8 °F /  -19.3 °C 1023.9 in /  34669.3 hPa Calm     88 % 0.0 in /  0 mm
01:34 -1.2 °F /  -18.4 °C -2.9 °F /  -19.4 °C 1023.9 in /  34669.3 hPa Calm     88 % 0.0 in /  0 mm
01:39 -1.2 °F /  -18.4 °C -2.9 °F /  -19.4 °C 1023.9 in /  34669.3 hPa Calm     88 % 0.0 in /  0 mm
01:44 -1.3 °F /  -18.5 °C -3.1 °F /  -19.5 °C 1023.9 in /  34669.3 hPa Calm     88 % 0.0 in /  0 mm
01:49 -1.3 °F /  -18.5 °C -3.1 °F /  -19.5 °C 1023.9 in /  34669.3 hPa Calm     88 % 0.0 in /  0 mm
01:54 -1.4 °F /  -18.6 °C -3.1 °F /  -19.5 °C 1023.9 in /  34669.3 hPa Calm     88 % 0.0 in /  0 mm
01:59 -1.4 °F /  -18.6 °C -3.1 °F /  -19.5 °C 1023.9 in /  34669.3 hPa Calm     88 % 0.0 in /  0 mm
02:04 -1.4 °F /  -18.6 °C -3.0 °F /  -19.4 °C 1023.9 in /  34669.3 hPa Calm     89 % 0.0 in /  0 mm
02:09 -1.4 °F /  -18.6 °C -3.0 °F /  -19.4 °C 1023.9 in /  34669.3 hPa Calm     89 % 0.0 in /  0 mm
02:14 -1.4 °F /  -18.6 °C -3.0 °F /  -19.4 °C 1023.9 in /  34669.3 hPa Calm     89 % 0.0 in /  0 mm
02:19 -1.5 °F /  -18.6 °C -3.1 °F /  -19.5 °C 1023.9 in /  34669.3 hPa Calm     89 % 0.0 in /  0 mm
02:24 -1.4 °F /  -18.6 °C -3.0 °F /  -19.4 °C 1023.9 in /  34669.3 hPa Calm     89 % 0.0 in /  0 mm
02:29 -1.5 °F /  -18.6 °C -3.1 °F /  -19.5 °C 1023.9 in /  34669.3 hPa Calm     89 % 0.0 in /  0 mm
02:34 -1.5 °F /  -18.6 °C -3.1 °F /  -19.5 °C 1023.9 in /  34669.3 hPa Calm     89 % 0.0 in /  0 mm
02:39 -1.6 °F /  -18.7 °C -3.2 °F /  -19.6 °C 1023.9 in /  34669.3 hPa Calm     89 % 0.0 in /  0 mm
02:44 -1.6 °F /  -18.7 °C -3.2 °F /  -19.6 °C 1022.9 in /  34635.4 hPa Calm     89 % 0.0 in /  0 mm
02:49 -1.6 °F /  -18.7 °C -3.2 °F /  -19.6 °C 1022.9 in /  34635.4 hPa Calm     89 % 0.0 in /  0 mm
02:54 -1.7 °F /  -18.7 °C -3.3 °F /  -19.6 °C 1022.9 in /  34635.4 hPa Calm     89 % 0.0 in /  0 mm
02:59 -1.7 °F /  -18.7 °C -3.3 °F /  -19.6 °C 1022.9 in /  34635.4 hPa Calm     89 % 0.0 in /  0 mm
03:04 -1.8 °F /  -18.8 °C -3.4 °F /  -19.7 °C 1022.9 in /  34635.4 hPa Calm     89 % 0.0 in /  0 mm
03:09 -1.8 °F /  -18.8 °C -3.4 °F /  -19.7 °C 1022.9 in /  34635.4 hPa Calm     89 % 0.0 in /  0 mm
03:14 -1.8 °F /  -18.8 °C -3.4 °F /  -19.7 °C 1021.9 in /  34601.5 hPa Calm     89 % 0.0 in /  0 mm
03:19 -1.8 °F /  -18.8 °C -3.4 °F /  -19.7 °C 1021.9 in /  34601.5 hPa Calm     89 % 0.0 in /  0 mm
03:24 -1.8 °F /  -18.8 °C -3.4 °F /  -19.7 °C 1021.9 in /  34601.5 hPa Calm     89 % 0.0 in /  0 mm
03:29 -1.8 °F /  -18.8 °C -3.4 °F /  -19.7 °C 1021.9 in /  34601.5 hPa Calm     89 % 0.0 in /  0 mm
03:34 -1.8 °F /  -18.8 °C -3.4 °F /  -19.7 °C 1021.9 in /  34601.5 hPa Calm     89 % 0.0 in /  0 mm
03:39 -1.9 °F /  -18.8 °C -3.4 °F /  -19.7 °C 1021.9 in /  34601.5 hPa Calm     89 % 0.0 in /  0 mm
03:44 -1.9 °F /  -18.8 °C -3.4 °F /  -19.7 °C 1022.9 in /  34635.4 hPa Calm     89 % 0.0 in /  0 mm
03:49 -1.9 °F /  -18.8 °C -3.4 °F /  -19.7 °C 1022.9 in /  34635.4 hPa Calm     89 % 0.0 in /  0 mm
03:54 -1.8 °F /  -18.8 °C -3.2 °F /  -19.6 °C 1022.9 in /  34635.4 hPa Calm     90 % 0.0 in /  0 mm
03:59 -1.8 °F /  -18.8 °C -3.2 °F /  -19.6 °C 1022.9 in /  34635.4 hPa Calm     90 % 0.0 in /  0 mm
04:04 -1.8 °F /  -18.8 °C -3.2 °F /  -19.6 °C 1022.9 in /  34635.4 hPa Calm     90 % 0.0 in /  0 mm
04:09 -1.9 °F /  -18.8 °C -3.3 °F /  -19.6 °C 1022.9 in /  34635.4 hPa Calm     90 % 0.0 in /  0 mm
04:14 -1.8 °F /  -18.8 °C -3.2 °F /  -19.6 °C 1022.9 in /  34635.4 hPa Calm     90 % 0.0 in /  0 mm
04:19 -1.8 °F /  -18.8 °C -3.2 °F /  -19.6 °C 1022.9 in /  34635.4 hPa Calm     90 % 0.0 in /  0 mm
04:24 -1.8 °F /  -18.8 °C -3.2 °F /  -19.6 °C 1022.9 in /  34635.4 hPa Calm     90 % 0.0 in /  0 mm
04:29 -1.9 °F /  -18.8 °C -3.3 °F /  -19.6 °C 1021.9 in /  34601.5 hPa Calm     90 % 0.0 in /  0 mm
04:34 -1.9 °F /  -18.8 °C -3.3 °F /  -19.6 °C 1021.9 in /  34601.5 hPa Calm     90 % 0.0 in /  0 mm
04:39 -1.9 °F /  -18.8 °C -3.3 °F /  -19.6 °C 1021.9 in /  34601.5 hPa Calm     90 % 0.0 in /  0 mm
04:44 -1.9 °F /  -18.8 °C -3.3 °F /  -19.6 °C 1022.9 in /  34635.4 hPa Calm     90 % 0.0 in /  0 mm
04:49 -1.9 °F /  -18.8 °C -3.3 °F /  -19.6 °C 1022.9 in /  34635.4 hPa Calm     90 % 0.0 in /  0 mm
04:54 -2.0 °F /  -18.9 °C -3.4 °F /  -19.7 °C 1022.9 in /  34635.4 hPa Calm     90 % 0.0 in /  0 mm
04:59 -2.0 °F /  -18.9 °C -3.4 °F /  -19.7 °C 1022.9 in /  34635.4 hPa Calm     90 % 0.0 in /  0 mm
05:04 -2.1 °F /  -18.9 °C -3.5 °F /  -19.7 °C 1022.9 in /  34635.4 hPa Calm     90 % 0.0 in /  0 mm
05:09 -2.0 °F /  -18.9 °C -3.3 °F /  -19.6 °C 1022.9 in /  34635.4 hPa Calm     91 % 0.0 in /  0 mm
05:14 -2.0 °F /  -18.9 °C -3.3 °F /  -19.6 °C 1021.9 in /  34601.5 hPa Calm     91 % 0.0 in /  0 mm
05:19 -2.0 °F /  -18.9 °C -3.3 °F /  -19.6 °C 1021.9 in /  34601.5 hPa Calm     91 % 0.0 in /  0 mm
05:24 -1.9 °F /  -18.8 °C -3.3 °F /  -19.6 °C 1021.9 in /  34601.5 hPa Calm     90 % 0.0 in /  0 mm
05:29 -1.8 °F /  -18.8 °C -3.2 °F /  -19.6 °C 1021.9 in /  34601.5 hPa Calm     90 % 0.0 in /  0 mm
05:34 -1.7 °F /  -18.7 °C -3.0 °F /  -19.4 °C 1021.9 in /  34601.5 hPa Calm     91 % 0.0 in /  0 mm
05:39 -1.5 °F /  -18.6 °C -2.8 °F /  -19.3 °C 1021.9 in /  34601.5 hPa Calm     91 % 0.0 in /  0 mm
05:44 -1.4 °F /  -18.6 °C -2.7 °F /  -19.3 °C 1020.9 in /  34567.7 hPa Calm     91 % 0.0 in /  0 mm
05:49 -1.4 °F /  -18.6 °C -2.7 °F /  -19.3 °C 1020.9 in /  34567.7 hPa Calm     91 % 0.0 in /  0 mm
05:54 -1.3 °F /  -18.5 °C -2.6 °F /  -19.2 °C 1020.9 in /  34567.7 hPa Calm     91 % 0.0 in /  0 mm
05:59 -1.2 °F /  -18.4 °C -2.5 °F /  -19.2 °C 1020.9 in /  34567.7 hPa Calm     91 % 0.0 in /  0 mm
06:04 -1.1 °F /  -18.4 °C -2.2 °F /  -19 °C 1020.9 in /  34567.7 hPa Calm     92 % 0.0 in /  0 mm
06:09 -1.0 °F /  -18.3 °C -2.1 °F /  -18.9 °C 1020.9 in /  34567.7 hPa Calm     92 % 0.0 in /  0 mm
06:14 -0.9 °F /  -18.3 °C -2.2 °F /  -19 °C 1020.9 in /  34567.7 hPa Calm     91 % 0.0 in /  0 mm
06:19 -0.9 °F /  -18.3 °C -2.1 °F /  -18.9 °C 1020.9 in /  34567.7 hPa Calm     92 % 0.0 in /  0 mm
06:24 -0.7 °F /  -18.2 °C -1.8 °F /  -18.8 °C 1020.9 in /  34567.7 hPa Calm     92 % 0.0 in /  0 mm
06:29 -0.6 °F /  -18.1 °C -1.7 °F /  -18.7 °C 1020.9 in /  34567.7 hPa Calm     92 % 0.0 in /  0 mm
06:34 -0.5 °F /  -18.1 °C -1.7 °F /  -18.7 °C 1020.9 in /  34567.7 hPa SW 0.2 mph /  0.3 km/h 3.2 mph /  5.1 km/h 92 % 0.0 in /  0 mm
06:39 -0.4 °F /  -18 °C -1.6 °F /  -18.7 °C 1020.9 in /  34567.7 hPa SW 0.2 mph /  0.3 km/h 3.2 mph /  5.1 km/h 92 % 0.0 in /  0 mm
06:44 -0.4 °F /  -18 °C -1.6 °F /  -18.7 °C 1020.9 in /  34567.7 hPa Calm     92 % 0.0 in /  0 mm
06:49 -0.3 °F /  -17.9 °C -1.4 °F /  -18.6 °C 1020.9 in /  34567.7 hPa Calm     92 % 0.0 in /  0 mm
06:54 -0.2 °F /  -17.9 °C -1.3 °F /  -18.5 °C 1020.9 in /  34567.7 hPa Calm     92 % 0.0 in /  0 mm
06:59 -0.2 °F /  -17.9 °C -1.2 °F /  -18.4 °C 1020.9 in /  34567.7 hPa Calm     93 % 0.0 in /  0 mm
07:04 -0.1 °F /  -17.8 °C -1.1 °F /  -18.4 °C 1020.9 in /  34567.7 hPa Calm     93 % 0.0 in /  0 mm
07:09 0.0 °F /  -17.8 °C -1.0 °F /  -18.3 °C 1020.9 in /  34567.7 hPa Calm     93 % 0.0 in /  0 mm
07:14 0.0 °F /  -17.8 °C -1.0 °F /  -18.3 °C 1020.9 in /  34567.7 hPa Calm     93 % 0.0 in /  0 mm
07:19 0.1 °F /  -17.7 °C -0.9 °F /  -18.3 °C 1020.9 in /  34567.7 hPa Calm     93 % 0.0 in /  0 mm
07:24 0.1 °F /  -17.7 °C -0.9 °F /  -18.3 °C 1020.9 in /  34567.7 hPa Calm     93 % 0.0 in /  0 mm
07:29 0.1 °F /  -17.7 °C -0.9 °F /  -18.3 °C 1020.9 in /  34567.7 hPa Calm     93 % 0.0 in /  0 mm
07:34 0.2 °F /  -17.7 °C -0.8 °F /  -18.2 °C 1020.9 in /  34567.7 hPa Calm     93 % 0.0 in /  0 mm
07:39 0.3 °F /  -17.6 °C -0.7 °F /  -18.2 °C 1020.9 in /  34567.7 hPa Calm     93 % 0.0 in /  0 mm
07:44 0.3 °F /  -17.6 °C -0.7 °F /  -18.2 °C 1020.9 in /  34567.7 hPa Calm     93 % 0.0 in /  0 mm
07:49 0.3 °F /  -17.6 °C -0.7 °F /  -18.2 °C 1020.9 in /  34567.7 hPa Calm     93 % 0.0 in /  0 mm
07:54 0.4 °F /  -17.6 °C -0.4 °F /  -18 °C 1020.9 in /  34567.7 hPa Calm     94 % 0.0 in /  0 mm
07:59 0.4 °F /  -17.6 °C -0.4 °F /  -18 °C 1021.9 in /  34601.5 hPa Calm     94 % 0.0 in /  0 mm
08:04 0.5 °F /  -17.5 °C -0.3 °F /  -17.9 °C 1021.9 in /  34601.5 hPa Calm     94 % 0.0 in /  0 mm
08:09 0.5 °F /  -17.5 °C -0.3 °F /  -17.9 °C 1021.9 in /  34601.5 hPa Calm     94 % 0.0 in /  0 mm
08:14 0.6 °F /  -17.4 °C -0.3 °F /  -17.9 °C 1020.9 in /  34567.7 hPa Calm     94 % 0.0 in /  0 mm
08:19 0.6 °F /  -17.4 °C -0.3 °F /  -17.9 °C 1020.9 in /  34567.7 hPa Calm     94 % 0.0 in /  0 mm
08:24 0.7 °F /  -17.4 °C -0.2 °F /  -17.9 °C 1020.9 in /  34567.7 hPa Calm     94 % 0.0 in /  0 mm
08:29 0.7 °F /  -17.4 °C -0.2 °F /  -17.9 °C 1020.9 in /  34567.7 hPa Calm     94 % 0.0 in /  0 mm
08:34 0.8 °F /  -17.3 °C -0.1 °F /  -17.8 °C 1020.9 in /  34567.7 hPa Calm     94 % 0.0 in /  0 mm
08:39 0.9 °F /  -17.3 °C 0.1 °F /  -17.7 °C 1020.9 in /  34567.7 hPa Calm     94 % 0.0 in /  0 mm
08:44 0.9 °F /  -17.3 °C 0.1 °F /  -17.7 °C 1020.9 in /  34567.7 hPa Calm     94 % 0.0 in /  0 mm
08:49 1.0 °F /  -17.2 °C 0.2 °F /  -17.7 °C 1020.9 in /  34567.7 hPa Calm     94 % 0.0 in /  0 mm
08:54 1.0 °F /  -17.2 °C 0.2 °F /  -17.7 °C 1020.9 in /  34567.7 hPa Calm     94 % 0.0 in /  0 mm
08:59 1.1 °F /  -17.2 °C 0.2 °F /  -17.7 °C 1020.9 in /  34567.7 hPa Calm     94 % 0.0 in /  0 mm
09:04 1.1 °F /  -17.2 °C 0.2 °F /  -17.7 °C 1020.9 in /  34567.7 hPa Calm   1.4 mph /  2.3 km/h 94 % 0.0 in /  0 mm
09:09 1.2 °F /  -17.1 °C 0.3 °F /  -17.6 °C 1020.9 in /  34567.7 hPa Calm   1.4 mph /  2.3 km/h 94 % 0.0 in /  0 mm
09:14 1.3 °F /  -17.1 °C 0.4 °F /  -17.6 °C 1020.9 in /  34567.7 hPa Calm     94 % 0.0 in /  0 mm
09:19 1.3 °F /  -17.1 °C 0.4 °F /  -17.6 °C 1020.9 in /  34567.7 hPa Calm     94 % 0.0 in /  0 mm
09:24 1.5 °F /  -16.9 °C 0.8 °F /  -17.3 °C 1020.9 in /  34567.7 hPa Calm     95 % 0.0 in /  0 mm
09:29 1.5 °F /  -16.9 °C 0.8 °F /  -17.3 °C 1020.9 in /  34567.7 hPa Calm     95 % 0.0 in /  0 mm
09:34 1.6 °F /  -16.9 °C 0.9 °F /  -17.3 °C 1020.9 in /  34567.7 hPa Calm     95 % 0.0 in /  0 mm
09:39 1.7 °F /  -16.8 °C 1.0 °F /  -17.2 °C 1020.9 in /  34567.7 hPa Calm     95 % 0.0 in /  0 mm
09:44 1.8 °F /  -16.8 °C 1.1 °F /  -17.2 °C 1019.9 in /  34533.8 hPa Calm     95 % 0.0 in /  0 mm
09:49 1.9 °F /  -16.7 °C 1.2 °F /  -17.1 °C 1019.9 in /  34533.8 hPa Calm     95 % 0.0 in /  0 mm
09:54 2.0 °F /  -16.7 °C 1.3 °F /  -17.1 °C 1019.9 in /  34533.8 hPa Calm     95 % 0.0 in /  0 mm
09:59 2.1 °F /  -16.6 °C 1.4 °F /  -17 °C 1020.9 in /  34567.7 hPa Calm     95 % 0.0 in /  0 mm
10:04 2.1 °F /  -16.6 °C 1.4 °F /  -17 °C 1020.9 in /  34567.7 hPa Calm     95 % 0.0 in /  0 mm
10:09 2.2 °F /  -16.6 °C 1.5 °F /  -16.9 °C 1020.9 in /  34567.7 hPa Calm     95 % 0.0 in /  0 mm
10:14 2.3 °F /  -16.5 °C 1.6 °F /  -16.9 °C 1019.9 in /  34533.8 hPa Calm     95 % 0.0 in /  0 mm
10:19 2.4 °F /  -16.4 °C 1.7 °F /  -16.8 °C 1019.9 in /  34533.8 hPa Calm     95 % 0.0 in /  0 mm
10:24 2.4 °F /  -16.4 °C 1.7 °F /  -16.8 °C 1019.9 in /  34533.8 hPa Calm     95 % 0.0 in /  0 mm
10:29 2.5 °F /  -16.4 °C 1.8 °F /  -16.8 °C 1020.9 in /  34567.7 hPa Calm     95 % 0.0 in /  0 mm
10:34 2.7 °F /  -16.3 °C 2.0 °F /  -16.7 °C 1020.9 in /  34567.7 hPa Calm     95 % 0.0 in /  0 mm
10:39 2.8 °F /  -16.2 °C 2.1 °F /  -16.6 °C 1020.9 in /  34567.7 hPa Calm     95 % 0.0 in /  0 mm
10:44 2.9 °F /  -16.2 °C 2.2 °F /  -16.6 °C 1020.9 in /  34567.7 hPa Calm     95 % 0.0 in /  0 mm
10:49 3.1 °F /  -16.1 °C 2.4 °F /  -16.4 °C 1020.9 in /  34567.7 hPa Calm     95 % 0.0 in /  0 mm
10:54 3.3 °F /  -15.9 °C 2.6 °F /  -16.3 °C 1020.9 in /  34567.7 hPa Calm     95 % 0.0 in /  0 mm
10:59 3.4 °F /  -15.9 °C 2.7 °F /  -16.3 °C 1020.9 in /  34567.7 hPa Calm     95 % 0.0 in /  0 mm
11:04 3.5 °F /  -15.8 °C 2.8 °F /  -16.2 °C 1020.9 in /  34567.7 hPa Calm     95 % 0.0 in /  0 mm
11:09 3.7 °F /  -15.7 °C 3.1 °F /  -16.1 °C 1020.9 in /  34567.7 hPa Calm     96 % 0.0 in /  0 mm
11:14 3.8 °F /  -15.7 °C 3.2 °F /  -16 °C 1020.9 in /  34567.7 hPa Calm     96 % 0.0 in /  0 mm
11:19 3.9 °F /  -15.6 °C 3.3 °F /  -15.9 °C 1020.9 in /  34567.7 hPa SE 0.3 mph /  0.5 km/h 4.0 mph /  6.4 km/h 96 % 0.0 in /  0 mm
11:24 4.0 °F /  -15.6 °C 3.3 °F /  -15.9 °C 1020.9 in /  34567.7 hPa SE 0.8 mph /  1.3 km/h 4.0 mph /  6.4 km/h 95 % 0.0 in /  0 mm
11:29 4.1 °F /  -15.5 °C 3.4 °F /  -15.9 °C 1020.9 in /  34567.7 hPa SE 0.3 mph /  0.5 km/h 2.6 mph /  4.2 km/h 95 % 0.0 in /  0 mm
11:34 4.2 °F /  -15.4 °C 3.4 °F /  -15.9 °C 1020.9 in /  34567.7 hPa Calm     95 % 0.0 in /  0 mm
11:39 4.3 °F /  -15.4 °C 3.7 °F /  -15.7 °C 1020.9 in /  34567.7 hPa Calm     96 % 0.0 in /  0 mm
11:44 4.4 °F /  -15.3 °C 3.8 °F /  -15.7 °C 1019.9 in /  34533.8 hPa Calm     96 % 0.0 in /  0 mm
11:49 4.5 °F /  -15.3 °C 3.9 °F /  -15.6 °C 1019.9 in /  34533.8 hPa Calm     96 % 0.0 in /  0 mm
11:54 4.6 °F /  -15.2 °C 4.0 °F /  -15.6 °C 1019.9 in /  34533.8 hPa Calm     96 % 0.0 in /  0 mm
11:59 4.7 °F /  -15.2 °C 4.1 °F /  -15.5 °C 1019.9 in /  34533.8 hPa Calm     96 % 0.0 in /  0 mm
12:04 4.9 °F /  -15.1 °C 4.3 °F /  -15.4 °C 1019.9 in /  34533.8 hPa Calm     96 % 0.0 in /  0 mm
12:09 5.0 °F /  -15 °C 4.3 °F /  -15.4 °C 1019.9 in /  34533.8 hPa Calm     95 % 0.0 in /  0 mm
12:14 5.1 °F /  -14.9 °C 4.4 °F /  -15.3 °C 1018.8 in /  34496.6 hPa Calm     95 % 0.0 in /  0 mm
12:19 5.3 °F /  -14.8 °C 4.6 °F /  -15.2 °C 1018.8 in /  34496.6 hPa Calm     95 % 0.0 in /  0 mm
12:24 5.4 °F /  -14.8 °C 4.7 °F /  -15.2 °C 1018.8 in /  34496.6 hPa Calm     95 % 0.0 in /  0 mm
12:29 5.6 °F /  -14.7 °C 4.9 °F /  -15.1 °C 1018.8 in /  34496.6 hPa Calm     95 % 0.0 in /  0 mm
12:34 5.8 °F /  -14.6 °C 5.2 °F /  -14.9 °C 1018.8 in /  34496.6 hPa Calm     96 % 0.0 in /  0 mm
12:39 6.0 °F /  -14.4 °C 5.3 °F /  -14.8 °C 1018.8 in /  34496.6 hPa ESE 0.3 mph /  0.5 km/h 4.0 mph /  6.4 km/h 95 % 0.0 in /  0 mm
12:44 6.2 °F /  -14.3 °C 5.4 °F /  -14.8 °C 1018.8 in /  34496.6 hPa ESE 1.1 mph /  1.8 km/h 4.0 mph /  6.4 km/h 95 % 0.0 in /  0 mm
12:49 6.4 °F /  -14.2 °C 5.7 °F /  -14.6 °C 1018.8 in /  34496.6 hPa ESE 1.0 mph /  1.6 km/h 3.2 mph /  5.1 km/h 95 % 0.0 in /  0 mm
12:54 6.5 °F /  -14.2 °C 5.8 °F /  -14.6 °C 1018.8 in /  34496.6 hPa SSE 1.6 mph /  2.6 km/h 6.9 mph /  11.1 km/h 95 % 0.0 in /  0 mm
12:59 6.7 °F /  -14.1 °C 5.9 °F /  -14.5 °C 1018.8 in /  34496.6 hPa SSE 2.7 mph /  4.3 km/h 6.9 mph /  11.1 km/h 95 % 0.0 in /  0 mm
13:04 6.8 °F /  -14 °C 6.1 °F /  -14.4 °C 1018.8 in /  34496.6 hPa SSE 3.7 mph /  6 km/h 6.9 mph /  11.1 km/h 95 % 0.0 in /  0 mm
13:09 6.9 °F /  -13.9 °C 6.2 °F /  -14.3 °C 1018.8 in /  34496.6 hPa SSE 4.8 mph /  7.7 km/h 6.9 mph /  11.1 km/h 95 % 0.0 in /  0 mm
13:14 7.0 °F /  -13.9 °C 6.3 °F /  -14.3 °C 1018.2 in /  34476.3 hPa SSE 4.3 mph /  6.9 km/h 6.1 mph /  9.8 km/h 95 % 0.0 in /  0 mm
13:19 7.1 °F /  -13.8 °C 6.3 °F /  -14.3 °C 1018.2 in /  34476.3 hPa SSE 4.2 mph /  6.8 km/h 6.1 mph /  9.8 km/h 95 % 0.0 in /  0 mm
13:24 7.2 °F /  -13.8 °C 6.4 °F /  -14.2 °C 1018.2 in /  34476.3 hPa SSE 4.0 mph /  6.4 km/h 5.5 mph /  8.9 km/h 95 % 0.0 in /  0 mm
13:29 7.3 °F /  -13.7 °C 6.6 °F /  -14.1 °C 1018.2 in /  34476.3 hPa SSE 3.5 mph /  5.6 km/h 5.5 mph /  8.9 km/h 95 % 0.0 in /  0 mm
13:34 7.4 °F /  -13.7 °C 6.7 °F /  -14.1 °C 1018.2 in /  34476.3 hPa SSE 3.9 mph /  6.3 km/h 6.4 mph /  10.3 km/h 95 % 0.0 in /  0 mm
13:39 7.5 °F /  -13.6 °C 6.8 °F /  -14 °C 1018.2 in /  34476.3 hPa SSE 4.7 mph /  7.6 km/h 7.2 mph /  11.6 km/h 95 % 0.0 in /  0 mm
13:44 7.5 °F /  -13.6 °C 6.6 °F /  -14.1 °C 1016.8 in /  34428.8 hPa SSE 4.8 mph /  7.7 km/h 7.2 mph /  11.6 km/h 94 % 0.0 in /  0 mm
13:49 7.6 °F /  -13.6 °C 6.7 °F /  -14.1 °C 1016.8 in /  34428.8 hPa SE 5.0 mph /  8 km/h 8.7 mph /  14 km/h 94 % 0.0 in /  0 mm
13:54 7.7 °F /  -13.5 °C 6.8 °F /  -14 °C 1016.8 in /  34428.8 hPa SE 5.3 mph /  8.5 km/h 8.7 mph /  14 km/h 94 % 0.0 in /  0 mm
13:59 7.7 °F /  -13.5 °C 6.8 °F /  -14 °C 1016.1 in /  34405.1 hPa SE 5.0 mph /  8 km/h 7.9 mph /  12.7 km/h 94 % 0.0 in /  0 mm
14:04 7.8 °F /  -13.4 °C 6.9 °F /  -13.9 °C 1016.1 in /  34405.1 hPa SSE 3.7 mph /  6 km/h 6.9 mph /  11.1 km/h 94 % 0.0 in /  0 mm
14:09 7.9 °F /  -13.4 °C 7.0 °F /  -13.9 °C 1016.1 in /  34405.1 hPa South 3.2 mph /  5.1 km/h 10.1 mph /  16.3 km/h 94 % 0.0 in /  0 mm
14:14 8.0 °F /  -13.3 °C 6.9 °F /  -13.9 °C 1018.2 in /  34476.3 hPa SSW 4.0 mph /  6.4 km/h 10.1 mph /  16.3 km/h 93 % 0.0 in /  0 mm
14:19 8.1 °F /  -13.3 °C 7.1 °F /  -13.8 °C 1018.2 in /  34476.3 hPa SSW 4.5 mph /  7.2 km/h 8.7 mph /  14 km/h 93 % 0.0 in /  0 mm
14:24 8.2 °F /  -13.2 °C 7.1 °F /  -13.8 °C 1018.2 in /  34476.3 hPa SW 5.0 mph /  8 km/h 8.7 mph /  14 km/h 93 % 0.0 in /  0 mm
14:29 8.2 °F /  -13.2 °C 7.0 °F /  -13.9 °C 1018.2 in /  34476.3 hPa SW 4.8 mph /  7.7 km/h 8.7 mph /  14 km/h 92 % 0.0 in /  0 mm
14:34 8.3 °F /  -13.2 °C 6.9 °F /  -13.9 °C 1018.2 in /  34476.3 hPa WSW 4.0 mph /  6.4 km/h 8.7 mph /  14 km/h 91 % 0.0 in /  0 mm
14:39 8.3 °F /  -13.2 °C 6.9 °F /  -13.9 °C 1018.2 in /  34476.3 hPa West 5.1 mph /  8.2 km/h 9.0 mph /  14.5 km/h 91 % 0.0 in /  0 mm
14:44 8.4 °F /  -13.1 °C 6.8 °F /  -14 °C 1016.8 in /  34428.8 hPa West 5.8 mph /  9.3 km/h 9.3 mph /  15 km/h 90 % 0.0 in /  0 mm
14:49 8.4 °F /  -13.1 °C 6.7 °F /  -14.1 °C 1016.8 in /  34428.8 hPa WSW 7.6 mph /  12.2 km/h 16.3 mph /  26.2 km/h 89 % 0.0 in /  0 mm
14:54 8.4 °F /  -13.1 °C 6.5 °F /  -14.2 °C 1016.8 in /  34428.8 hPa WSW 9.5 mph /  15.3 km/h 17.7 mph /  28.5 km/h 88 % 0.0 in /  0 mm
14:59 8.5 °F /  -13.1 °C 6.3 °F /  -14.3 °C 1016.8 in /  34428.8 hPa West 6.6 mph /  10.6 km/h 17.7 mph /  28.5 km/h 86 % 0.0 in /  0 mm
15:04 8.5 °F /  -13.1 °C 6.1 °F /  -14.4 °C 1016.8 in /  34428.8 hPa WNW 5.0 mph /  8 km/h 16.3 mph /  26.2 km/h 85 % 0.0 in /  0 mm
15:09 8.5 °F /  -13.1 °C 5.9 °F /  -14.5 °C 1016.8 in /  34428.8 hPa WSW 6.3 mph /  10.1 km/h 16.3 mph /  26.2 km/h 84 % 0.0 in /  0 mm
15:14 8.5 °F /  -13.1 °C 5.6 °F /  -14.7 °C 1016.1 in /  34405.1 hPa WSW 7.2 mph /  11.6 km/h 15.4 mph /  24.8 km/h 82 % 0.0 in /  0 mm
15:19 8.5 °F /  -13.1 °C 5.4 °F /  -14.8 °C 1016.1 in /  34405.1 hPa WSW 8.0 mph /  12.9 km/h 20.6 mph /  33.2 km/h 81 % 0.0 in /  0 mm
15:24 8.5 °F /  -13.1 °C 5.2 °F /  -14.9 °C 1016.1 in /  34405.1 hPa WSW 8.2 mph /  13.2 km/h 20.6 mph /  33.2 km/h 80 % 0.0 in /  0 mm
15:29 8.5 °F /  -13.1 °C 5.1 °F /  -14.9 °C 1016.1 in /  34405.1 hPa WSW 7.2 mph /  11.6 km/h 13.7 mph /  22 km/h 79 % 0.0 in /  0 mm
15:34 8.5 °F /  -13.1 °C 4.7 °F /  -15.2 °C 1016.1 in /  34405.1 hPa West 7.7 mph /  12.4 km/h 14.0 mph /  22.5 km/h 77 % 0.0 in /  0 mm
15:39 8.5 °F /  -13.1 °C 4.5 °F /  -15.3 °C 1016.1 in /  34405.1 hPa WSW 8.0 mph /  12.9 km/h 14.0 mph /  22.5 km/h 76 % 0.0 in /  0 mm
15:44 8.5 °F /  -13.1 °C 4.3 °F /  -15.4 °C 1016.1 in /  34405.1 hPa WSW 6.6 mph /  10.6 km/h 15.4 mph /  24.8 km/h 75 % 0.0 in /  0 mm
15:49 8.5 °F /  -13.1 °C 4.3 °F /  -15.4 °C 1016.1 in /  34405.1 hPa West 6.6 mph /  10.6 km/h 17.7 mph /  28.5 km/h 75 % 0.0 in /  0 mm
15:54 8.4 °F /  -13.1 °C 4.1 °F /  -15.5 °C 1016.1 in /  34405.1 hPa WSW 6.0 mph /  9.7 km/h 17.7 mph /  28.5 km/h 74 % 0.0 in /  0 mm
15:59 8.4 °F /  -13.1 °C 3.8 °F /  -15.7 °C 1016.1 in /  34405.1 hPa West 5.5 mph /  8.9 km/h 17.2 mph /  27.7 km/h 73 % 0.0 in /  0 mm
16:04 8.4 °F /  -13.1 °C 3.8 °F /  -15.7 °C 1016.1 in /  34405.1 hPa West 7.1 mph /  11.4 km/h 17.2 mph /  27.7 km/h 73 % 0.0 in /  0 mm
16:09 8.3 °F /  -13.2 °C 3.6 °F /  -15.8 °C 1016.1 in /  34405.1 hPa West 6.6 mph /  10.6 km/h 13.0 mph /  20.9 km/h 72 % 0.0 in /  0 mm
16:14 8.3 °F /  -13.2 °C 3.6 °F /  -15.8 °C 1015.1 in /  34371.3 hPa West 6.8 mph /  10.9 km/h 11.9 mph /  19.2 km/h 72 % 0.0 in /  0 mm
16:19 8.3 °F /  -13.2 °C 3.3 °F /  -15.9 °C 1015.1 in /  34371.3 hPa West 7.6 mph /  12.2 km/h 14.0 mph /  22.5 km/h 71 % 0.0 in /  0 mm
16:24 8.3 °F /  -13.2 °C 3.3 °F /  -15.9 °C 1015.1 in /  34371.3 hPa WNW 6.4 mph /  10.3 km/h 14.0 mph /  22.5 km/h 71 % 0.0 in /  0 mm
16:29 8.2 °F /  -13.2 °C 3.3 °F /  -15.9 °C 1015.1 in /  34371.3 hPa West 6.4 mph /  10.3 km/h 12.6 mph /  20.3 km/h 71 % 0.0 in /  0 mm
16:34 8.2 °F /  -13.2 °C 3.1 °F /  -16.1 °C 1015.1 in /  34371.3 hPa West 6.4 mph /  10.3 km/h 14.8 mph /  23.8 km/h 70 % 0.0 in /  0 mm
16:39 8.2 °F /  -13.2 °C 3.1 °F /  -16.1 °C 1015.1 in /  34371.3 hPa West 6.0 mph /  9.7 km/h 14.8 mph /  23.8 km/h 70 % 0.0 in /  0 mm
16:44 8.2 °F /  -13.2 °C 3.1 °F /  -16.1 °C 1015.1 in /  34371.3 hPa West 5.8 mph /  9.3 km/h 14.0 mph /  22.5 km/h 70 % 0.0 in /  0 mm
16:49 8.2 °F /  -13.2 °C 3.1 °F /  -16.1 °C 1015.1 in /  34371.3 hPa West 5.1 mph /  8.2 km/h 11.6 mph /  18.7 km/h 70 % 0.0 in /  0 mm
16:54 8.1 °F /  -13.3 °C 2.9 °F /  -16.2 °C 1015.1 in /  34371.3 hPa WSW 6.0 mph /  9.7 km/h 11.6 mph /  18.7 km/h 70 % 0.0 in /  0 mm
16:59 8.0 °F /  -13.3 °C 2.7 °F /  -16.3 °C 1015.1 in /  34371.3 hPa WSW 5.3 mph /  8.5 km/h 10.8 mph /  17.4 km/h 69 % 0.0 in /  0 mm
17:04 8.0 °F /  -13.3 °C 2.7 °F /  -16.3 °C 1015.1 in /  34371.3 hPa WSW 3.7 mph /  6 km/h 6.9 mph /  11.1 km/h 69 % 0.0 in /  0 mm
17:09 7.9 °F /  -13.4 °C 2.8 °F /  -16.2 °C 1015.1 in /  34371.3 hPa SSW 2.7 mph /  4.3 km/h 6.9 mph /  11.1 km/h 70 % 0.0 in /  0 mm
17:14 7.9 °F /  -13.4 °C 2.8 °F /  -16.2 °C 1015.1 in /  34371.3 hPa SW 3.4 mph /  5.5 km/h 10.1 mph /  16.3 km/h 70 % 0.0 in /  0 mm
17:19 7.8 °F /  -13.4 °C 2.7 °F /  -16.3 °C 1015.1 in /  34371.3 hPa SW 4.8 mph /  7.7 km/h 10.1 mph /  16.3 km/h 70 % 0.0 in /  0 mm
17:24 7.7 °F /  -13.5 °C 2.6 °F /  -16.3 °C 1015.1 in /  34371.3 hPa SW 4.8 mph /  7.7 km/h 9.0 mph /  14.5 km/h 70 % 0.0 in /  0 mm
17:29 7.6 °F /  -13.6 °C 2.5 °F /  -16.4 °C 1015.1 in /  34371.3 hPa WSW 4.5 mph /  7.2 km/h 9.0 mph /  14.5 km/h 70 % 0.0 in /  0 mm
17:34 7.5 °F /  -13.6 °C 2.4 °F /  -16.4 °C 1015.1 in /  34371.3 hPa WSW 4.0 mph /  6.4 km/h 9.0 mph /  14.5 km/h 70 % 0.0 in /  0 mm
17:39 7.4 °F /  -13.7 °C 2.3 °F /  -16.5 °C 1015.1 in /  34371.3 hPa WSW 3.7 mph /  6 km/h 6.9 mph /  11.1 km/h 70 % 0.0 in /  0 mm
17:44 7.2 °F /  -13.8 °C 2.1 °F /  -16.6 °C 1016.1 in /  34405.1 hPa WSW 3.4 mph /  5.5 km/h 7.9 mph /  12.7 km/h 70 % 0.0 in /  0 mm
17:49 7.0 °F /  -13.9 °C 1.9 °F /  -16.7 °C 1016.1 in /  34405.1 hPa SW 3.9 mph /  6.3 km/h 7.9 mph /  12.7 km/h 70 % 0.0 in /  0 mm
17:54 6.8 °F /  -14 °C 1.7 °F /  -16.8 °C 1016.1 in /  34405.1 hPa SW 3.4 mph /  5.5 km/h 6.9 mph /  11.1 km/h 70 % 0.0 in /  0 mm
17:59 6.7 °F /  -14.1 °C 1.6 °F /  -16.9 °C 1015.1 in /  34371.3 hPa SW 2.3 mph /  3.7 km/h 4.7 mph /  7.6 km/h 70 % 0.0 in /  0 mm
18:01 6.7 °F /  -14.1 °C 1.6 °F /  -16.9 °C 1015.1 in /  34371.3 hPa WSW 1.6 mph /  2.6 km/h 4.7 mph /  7.6 km/h 70 % 0.0 in /  0 mm
18:06 6.5 °F /  -14.2 °C 1.6 °F /  -16.9 °C 1015.1 in /  34371.3 hPa SW 2.3 mph /  3.7 km/h 9.0 mph /  14.5 km/h 71 % 0.0 in /  0 mm
18:11 6.5 °F /  -14.2 °C 1.6 °F /  -16.9 °C 1015.1 in /  34371.3 hPa SW 4.3 mph /  6.9 km/h 9.0 mph /  14.5 km/h 71 % 0.0 in /  0 mm
18:16 6.5 °F /  -14.2 °C 1.6 °F /  -16.9 °C 1015.1 in /  34371.3 hPa SW 4.5 mph /  7.2 km/h 8.7 mph /  14 km/h 71 % 0.0 in /  0 mm
18:21 6.5 °F /  -14.2 °C 1.8 °F /  -16.8 °C 1015.1 in /  34371.3 hPa SW 4.0 mph /  6.4 km/h 6.4 mph /  10.3 km/h 72 % 0.0 in /  0 mm
18:26 6.5 °F /  -14.2 °C 1.8 °F /  -16.8 °C 1015.1 in /  34371.3 hPa SW 4.7 mph /  7.6 km/h 10.5 mph /  16.9 km/h 72 % 0.0 in /  0 mm
18:31 6.4 °F /  -14.2 °C 1.7 °F /  -16.8 °C 1015.1 in /  34371.3 hPa SW 4.7 mph /  7.6 km/h 10.5 mph /  16.9 km/h 72 % 0.0 in /  0 mm
18:36 6.4 °F /  -14.2 °C 1.7 °F /  -16.8 °C 1015.1 in /  34371.3 hPa SSW 4.5 mph /  7.2 km/h 6.9 mph /  11.1 km/h 72 % 0.0 in /  0 mm
18:41 6.3 °F /  -14.3 °C 1.8 °F /  -16.8 °C 1014.1 in /  34337.4 hPa SSW 5.0 mph /  8 km/h 9.7 mph /  15.6 km/h 73 % 0.0 in /  0 mm
18:46 6.4 °F /  -14.2 °C 1.9 °F /  -16.7 °C 1014.1 in /  34337.4 hPa SW 5.0 mph /  8 km/h 9.7 mph /  15.6 km/h 73 % 0.0 in /  0 mm
18:51 6.4 °F /  -14.2 °C 1.9 °F /  -16.7 °C 1014.1 in /  34337.4 hPa SSW 5.5 mph /  8.9 km/h 10.1 mph /  16.3 km/h 73 % 0.0 in /  0 mm
18:56 6.4 °F /  -14.2 °C 2.1 °F /  -16.6 °C 1014.1 in /  34337.4 hPa SSW 5.3 mph /  8.5 km/h 10.1 mph /  16.3 km/h 74 % 0.0 in /  0 mm
19:01 6.5 °F /  -14.2 °C 2.2 °F /  -16.6 °C 1014.1 in /  34337.4 hPa SW 4.8 mph /  7.7 km/h 8.7 mph /  14 km/h 74 % 0.0 in /  0 mm
19:06 6.4 °F /  -14.2 °C 2.1 °F /  -16.6 °C 1014.1 in /  34337.4 hPa SSW 4.2 mph /  6.8 km/h 6.9 mph /  11.1 km/h 74 % 0.0 in /  0 mm
19:11 6.4 °F /  -14.2 °C 2.1 °F /  -16.6 °C 1014.1 in /  34337.4 hPa SW 2.9 mph /  4.7 km/h 6.4 mph /  10.3 km/h 74 % 0.0 in /  0 mm
19:16 6.4 °F /  -14.2 °C 2.1 °F /  -16.6 °C 1014.1 in /  34337.4 hPa WSW 2.1 mph /  3.4 km/h 5.8 mph /  9.3 km/h 74 % 0.0 in /  0 mm
19:21 6.4 °F /  -14.2 °C 2.3 °F /  -16.5 °C 1014.1 in /  34337.4 hPa SW 3.4 mph /  5.5 km/h 8.7 mph /  14 km/h 75 % 0.0 in /  0 mm
19:26 6.4 °F /  -14.2 °C 2.3 °F /  -16.5 °C 1014.1 in /  34337.4 hPa SW 4.7 mph /  7.6 km/h 8.7 mph /  14 km/h 75 % 0.0 in /  0 mm
19:31 6.4 °F /  -14.2 °C 2.3 °F /  -16.5 °C 1014.1 in /  34337.4 hPa SW 2.7 mph /  4.3 km/h 6.4 mph /  10.3 km/h 75 % 0.0 in /  0 mm
19:36 6.4 °F /  -14.2 °C 2.3 °F /  -16.5 °C 1014.1 in /  34337.4 hPa SW 1.9 mph /  3.1 km/h 6.9 mph /  11.1 km/h 75 % 0.0 in /  0 mm
19:41 6.4 °F /  -14.2 °C 2.3 °F /  -16.5 °C 1013.1 in /  34303.6 hPa SW 3.2 mph /  5.1 km/h 7.9 mph /  12.7 km/h 75 % 0.0 in /  0 mm
19:46 6.3 °F /  -14.3 °C 2.2 °F /  -16.6 °C 1013.1 in /  34303.6 hPa SW 3.7 mph /  6 km/h 9.0 mph /  14.5 km/h 75 % 0.0 in /  0 mm
19:51 6.3 °F /  -14.3 °C 2.4 °F /  -16.4 °C 1013.1 in /  34303.6 hPa SW 3.4 mph /  5.5 km/h 9.0 mph /  14.5 km/h 76 % 0.0 in /  0 mm
19:56 6.3 °F /  -14.3 °C 2.4 °F /  -16.4 °C 1013.1 in /  34303.6 hPa SW 3.4 mph /  5.5 km/h 5.8 mph /  9.3 km/h 76 % 0.0 in /  0 mm
20:01 6.3 °F /  -14.3 °C 2.4 °F /  -16.4 °C 1013.1 in /  34303.6 hPa SW 4.2 mph /  6.8 km/h 7.9 mph /  12.7 km/h 76 % 0.0 in /  0 mm
20:06 6.3 °F /  -14.3 °C 2.4 °F /  -16.4 °C 1013.1 in /  34303.6 hPa SW 4.5 mph /  7.2 km/h 7.9 mph /  12.7 km/h 76 % 0.0 in /  0 mm
20:11 6.3 °F /  -14.3 °C 2.4 °F /  -16.4 °C 1013.1 in /  34303.6 hPa SW 4.5 mph /  7.2 km/h 8.7 mph /  14 km/h 76 % 0.0 in /  0 mm
20:16 6.3 °F /  -14.3 °C 2.4 °F /  -16.4 °C 1013.1 in /  34303.6 hPa SSW 5.1 mph /  8.2 km/h 11.1 mph /  17.9 km/h 76 % 0.0 in /  0 mm
20:21 6.4 °F /  -14.2 °C 2.5 °F /  -16.4 °C 1013.1 in /  34303.6 hPa SW 5.3 mph /  8.5 km/h 11.1 mph /  17.9 km/h 76 % 0.0 in /  0 mm
20:26 6.4 °F /  -14.2 °C 2.7 °F /  -16.3 °C 1013.1 in /  34303.6 hPa SW 5.6 mph /  9 km/h 10.1 mph /  16.3 km/h 77 % 0.0 in /  0 mm
20:31 6.4 °F /  -14.2 °C 2.7 °F /  -16.3 °C 1013.1 in /  34303.6 hPa SW 5.5 mph /  8.9 km/h 9.3 mph /  15 km/h 77 % 0.0 in /  0 mm
20:36 6.4 °F /  -14.2 °C 2.7 °F /  -16.3 °C 1013.1 in /  34303.6 hPa SSW 5.1 mph /  8.2 km/h 10.1 mph /  16.3 km/h 77 % 0.0 in /  0 mm
20:41 6.4 °F /  -14.2 °C 2.7 °F /  -16.3 °C 1012.1 in /  34269.7 hPa SSW 5.1 mph /  8.2 km/h 10.1 mph /  16.3 km/h 77 % 0.0 in /  0 mm
20:46 6.3 °F /  -14.3 °C 2.6 °F /  -16.3 °C 1012.1 in /  34269.7 hPa South 4.3 mph /  6.9 km/h 6.9 mph /  11.1 km/h 77 % 0.0 in /  0 mm
20:51 6.3 °F /  -14.3 °C 2.6 °F /  -16.3 °C 1012.1 in /  34269.7 hPa SSW 3.9 mph /  6.3 km/h 6.4 mph /  10.3 km/h 77 % 0.0 in /  0 mm
20:52 6.3 °F /  -14.3 °C 2.6 °F /  -16.3 °C 1012.1 in /  34269.7 hPa SSW 3.9 mph /  6.3 km/h 6.4 mph /  10.3 km/h 77 % 0.0 in /  0 mm
20:57 6.3 °F /  -14.3 °C 2.6 °F /  -16.3 °C 1012.1 in /  34269.7 hPa SW 3.7 mph /  6 km/h 8.7 mph /  14 km/h 77 % 0.0 in /  0 mm
21:02 6.3 °F /  -14.3 °C 2.6 °F /  -16.3 °C 1012.1 in /  34269.7 hPa SW 4.2 mph /  6.8 km/h 8.7 mph /  14 km/h 77 % 0.0 in /  0 mm
21:07 6.4 °F /  -14.2 °C 2.7 °F /  -16.3 °C 1012.1 in /  34269.7 hPa SSW 4.2 mph /  6.8 km/h 6.9 mph /  11.1 km/h 77 % 0.0 in /  0 mm
21:12 6.4 °F /  -14.2 °C 2.7 °F /  -16.3 °C 1013.1 in /  34303.6 hPa SSW 4.3 mph /  6.9 km/h 8.7 mph /  14 km/h 77 % 0.0 in /  0 mm
21:17 6.5 °F /  -14.2 °C 2.9 °F /  -16.2 °C 1013.1 in /  34303.6 hPa SSW 4.3 mph /  6.9 km/h 8.7 mph /  14 km/h 78 % 0.0 in /  0 mm
21:18 6.5 °F /  -14.2 °C 2.9 °F /  -16.2 °C 1013.1 in /  34303.6 hPa SSW 4.3 mph /  6.9 km/h 8.7 mph /  14 km/h 78 % 0.0 in /  0 mm
21:23 6.4 °F /  -14.2 °C 2.8 °F /  -16.2 °C 1013.1 in /  34303.6 hPa SSW 3.9 mph /  6.3 km/h 6.4 mph /  10.3 km/h 78 % 0.0 in /  0 mm
21:28 6.3 °F /  -14.3 °C 2.7 °F /  -16.3 °C 1013.1 in /  34303.6 hPa South 3.5 mph /  5.6 km/h 6.1 mph /  9.8 km/h 78 % 0.0 in /  0 mm
21:33 6.1 °F /  -14.4 °C 2.6 °F /  -16.3 °C 1013.1 in /  34303.6 hPa South 3.7 mph /  6 km/h 6.9 mph /  11.1 km/h 78 % 0.0 in /  0 mm
21:38 6.1 °F /  -14.4 °C 2.4 °F /  -16.4 °C 1013.1 in /  34303.6 hPa SSW 2.4 mph /  3.9 km/h 6.9 mph /  11.1 km/h 77 % 0.0 in /  0 mm
21:43 5.9 °F /  -14.5 °C 2.3 °F /  -16.5 °C 1012.1 in /  34269.7 hPa SSE 0.5 mph /  0.8 km/h 3.2 mph /  5.1 km/h 78 % 0.0 in /  0 mm
21:48 5.6 °F /  -14.7 °C 2.1 °F /  -16.6 °C 1012.1 in /  34269.7 hPa WSW 1.0 mph /  1.6 km/h 4.0 mph /  6.4 km/h 78 % 0.0 in /  0 mm
21:53 5.4 °F /  -14.8 °C 1.9 °F /  -16.7 °C 1012.1 in /  34269.7 hPa SSW 2.4 mph /  3.9 km/h 9.0 mph /  14.5 km/h 78 % 0.0 in /  0 mm
21:58 5.3 °F /  -14.8 °C 1.8 °F /  -16.8 °C 1012.1 in /  34269.7 hPa SW 3.1 mph /  5 km/h 9.0 mph /  14.5 km/h 78 % 0.0 in /  0 mm
22:03 5.2 °F /  -14.9 °C 1.7 °F /  -16.8 °C 1012.1 in /  34269.7 hPa WNW 2.1 mph /  3.4 km/h 9.0 mph /  14.5 km/h 78 % 0.0 in /  0 mm
22:08 5.2 °F /  -14.9 °C 1.7 °F /  -16.8 °C 1012.1 in /  34269.7 hPa WNW 2.1 mph /  3.4 km/h 6.9 mph /  11.1 km/h 78 % 0.0 in /  0 mm
22:13 5.4 °F /  -14.8 °C 1.9 °F /  -16.7 °C 1012.1 in /  34269.7 hPa West 3.5 mph /  5.6 km/h 7.9 mph /  12.7 km/h 78 % 0.0 in /  0 mm
22:18 5.5 °F /  -14.7 °C 1.9 °F /  -16.7 °C 1012.1 in /  34269.7 hPa West 3.7 mph /  6 km/h 7.9 mph /  12.7 km/h 78 % 0.0 in /  0 mm
22:23 5.5 °F /  -14.7 °C 1.9 °F /  -16.7 °C 1012.1 in /  34269.7 hPa WNW 2.1 mph /  3.4 km/h 6.9 mph /  11.1 km/h 78 % 0.0 in /  0 mm
22:28 5.4 °F /  -14.8 °C 2.1 °F /  -16.6 °C 1012.1 in /  34269.7 hPa West 1.9 mph /  3.1 km/h 6.9 mph /  11.1 km/h 79 % 0.0 in /  0 mm
22:33 5.6 °F /  -14.7 °C 2.2 °F /  -16.6 °C 1012.1 in /  34269.7 hPa WSW 3.1 mph /  5 km/h 10.1 mph /  16.3 km/h 79 % 0.0 in /  0 mm
22:38 5.8 °F /  -14.6 °C 2.4 °F /  -16.4 °C 1012.1 in /  34269.7 hPa SW 4.2 mph /  6.8 km/h 10.1 mph /  16.3 km/h 79 % 0.0 in /  0 mm
22:43 5.8 °F /  -14.6 °C 2.6 °F /  -16.3 °C 1011.1 in /  34235.8 hPa SW 4.3 mph /  6.9 km/h 9.0 mph /  14.5 km/h 80 % 0.0 in /  0 mm
22:48 5.9 °F /  -14.5 °C 2.7 °F /  -16.3 °C 1011.1 in /  34235.8 hPa SW 4.3 mph /  6.9 km/h 7.9 mph /  12.7 km/h 80 % 0.0 in /  0 mm
22:53 6.0 °F /  -14.4 °C 2.8 °F /  -16.2 °C 1011.1 in /  34235.8 hPa SW 4.0 mph /  6.4 km/h 7.9 mph /  12.7 km/h 80 % 0.0 in /  0 mm
22:58 6.0 °F /  -14.4 °C 2.8 °F /  -16.2 °C 1011.1 in /  34235.8 hPa SSW 2.3 mph /  3.7 km/h 5.5 mph /  8.9 km/h 80 % 0.0 in /  0 mm
23:03 6.1 °F /  -14.4 °C 2.9 °F /  -16.2 °C 1011.1 in /  34235.8 hPa ESE 2.3 mph /  3.7 km/h 6.4 mph /  10.3 km/h 80 % 0.0 in /  0 mm
23:08 6.1 °F /  -14.4 °C 3.1 °F /  -16.1 °C 1011.1 in /  34235.8 hPa South 4.3 mph /  6.9 km/h 11.6 mph /  18.7 km/h 81 % 0.0 in /  0 mm
23:13 6.3 °F /  -14.3 °C 3.3 °F /  -15.9 °C 1011.1 in /  34235.8 hPa SSW 5.1 mph /  8.2 km/h 11.6 mph /  18.7 km/h 81 % 0.0 in /  0 mm
23:18 6.5 °F /  -14.2 °C 3.5 °F /  -15.8 °C 1011.1 in /  34235.8 hPa SSW 5.8 mph /  9.3 km/h 10.1 mph /  16.3 km/h 81 % 0.0 in /  0 mm
23:23 6.7 °F /  -14.1 °C 3.7 °F /  -15.7 °C 1011.1 in /  34235.8 hPa WSW 6.9 mph /  11.1 km/h 10.1 mph /  16.3 km/h 81 % 0.0 in /  0 mm
23:28 6.7 °F /  -14.1 °C 3.8 °F /  -15.7 °C 1011.1 in /  34235.8 hPa SW 6.1 mph /  9.8 km/h 9.7 mph /  15.6 km/h 82 % 0.0 in /  0 mm
23:34 6.7 °F /  -14.1 °C 3.8 °F /  -15.7 °C 1011.1 in /  34235.8 hPa SSW 4.8 mph /  7.7 km/h 12.2 mph /  19.6 km/h 82 % 0.0 in /  0 mm
23:39 6.8 °F /  -14 °C 3.9 °F /  -15.6 °C 1011.1 in /  34235.8 hPa SSW 4.8 mph /  7.7 km/h 12.2 mph /  19.6 km/h 82 % 0.0 in /  0 mm
23:44 6.8 °F /  -14 °C 3.9 °F /  -15.6 °C 1011.1 in /  34235.8 hPa SW 5.3 mph /  8.5 km/h 14.3 mph /  23 km/h 82 % 0.0 in /  0 mm
23:49 6.8 °F /  -14 °C 3.9 °F /  -15.6 °C 1011.1 in /  34235.8 hPa SW 6.1 mph /  9.8 km/h 14.3 mph /  23 km/h 82 % 0.0 in /  0 mm
23:53 6.8 °F /  -14 °C 3.9 °F /  -15.6 °C 1011.1 in /  34235.8 hPa SW 6.1 mph /  9.8 km/h 10.5 mph /  16.9 km/h 82 % 0.0 in /  0 mm
23:59 6.8 °F /  -14 °C 3.9 °F /  -15.6 °C 1011.1 in /  34235.8 hPa SSW 6.8 mph /  10.9 km/h 13.7 mph /  22 km/h 82 % 0.0 in /  0 mm
Vremenska postaja Senovo
Podatki zbrani iz Weather Underground - 3 mb

Script developed by  Jim McMurry - jmcmurry@mwt.net Adapted for the template by  Wim van der Kuil - Leuven-Template.eu

Vremenski podatki so objavljeni na:

European Weather Network

WeatherCloud

Weather Underground

AWEKAS

HAMweather, WeatherForYou, PWS Weather

MapView

Geostik

Slovenia weather network

Oprema, ki se uporablja:

Vremenski program
Cumulus

Vremenski server
Asus

Cumulus

Asus